createdAt,value
2017-07-06T00:01:10.629Z,57.70
2017-07-06T00:03:38.643Z,57.60
2017-07-06T00:06:06.671Z,57.70
2017-07-06T00:08:34.735Z,57.70
2017-07-06T00:11:02.799Z,57.70
2017-07-06T00:13:30.814Z,57.80
2017-07-06T00:15:58.939Z,57.70
2017-07-06T00:18:28.174Z,57.80
2017-07-06T00:20:56.310Z,57.80
2017-07-06T00:23:25.203Z,57.80
2017-07-06T00:25:53.266Z,57.80
2017-07-06T00:28:21.287Z,57.70
2017-07-06T00:30:49.415Z,57.90
2017-07-06T00:33:17.756Z,57.90
2017-07-06T00:35:46.580Z,58.50
2017-07-06T00:38:14.597Z,58.00
2017-07-06T00:40:42.719Z,58.00
2017-07-06T00:43:11.506Z,58.00
2017-07-06T00:45:40.090Z,58.00
2017-07-06T00:48:08.155Z,58.00
2017-07-06T00:50:36.227Z,58.00
2017-07-06T00:53:04.235Z,58.00
2017-07-06T00:55:32.371Z,58.00
2017-07-06T00:58:00.406Z,58.00
2017-07-06T01:00:29.195Z,58.20
2017-07-06T01:02:58.013Z,58.00
2017-07-06T01:05:26.031Z,58.00
2017-07-06T01:07:54.128Z,58.00
2017-07-06T01:10:23.571Z,58.00
2017-07-06T01:12:51.627Z,58.00
2017-07-06T01:15:20.510Z,58.00
2017-07-06T01:17:49.407Z,58.00
2017-07-06T01:20:17.475Z,57.90
2017-07-06T01:22:48.102Z,58.00
2017-07-06T01:25:16.180Z,58.00
2017-07-06T01:27:44.202Z,58.00
2017-07-06T01:30:12.319Z,58.00
2017-07-06T01:32:40.396Z,58.00
2017-07-06T01:35:09.655Z,58.30
2017-07-06T01:37:38.450Z,58.20
2017-07-06T01:40:07.266Z,58.20
2017-07-06T01:42:35.330Z,58.20
2017-07-06T01:45:04.785Z,58.10
2017-07-06T01:47:32.811Z,58.10
2017-07-06T01:50:00.827Z,58.00
2017-07-06T01:52:28.943Z,58.00
2017-07-06T01:54:58.654Z,58.20
2017-07-06T01:57:26.722Z,58.30
2017-07-06T01:59:55.621Z,58.40
2017-07-06T02:02:23.687Z,58.40
2017-07-06T02:04:51.759Z,58.30
2017-07-06T02:07:20.647Z,58.40
2017-07-06T02:09:48.936Z,58.40
2017-07-06T02:12:16.992Z,58.40
2017-07-06T02:14:45.059Z,58.40
2017-07-06T02:17:13.131Z,59.10
2017-07-06T02:19:41.199Z,58.40
2017-07-06T02:22:09.210Z,58.40
2017-07-06T02:24:37.240Z,58.40
2017-07-06T02:27:05.255Z,58.50
2017-07-06T02:29:33.383Z,58.40
2017-07-06T02:32:01.403Z,58.40
2017-07-06T02:34:30.251Z,58.40
2017-07-06T02:36:58.275Z,58.40
2017-07-06T02:39:27.075Z,58.40
2017-07-06T02:41:55.162Z,58.40
2017-07-06T02:44:23.787Z,58.40
2017-07-06T02:46:52.548Z,58.30
2017-07-06T02:49:20.604Z,58.40
2017-07-06T02:51:48.678Z,58.40
2017-07-06T02:54:16.746Z,58.40
2017-07-06T02:56:44.818Z,58.50
2017-07-06T02:59:13.820Z,58.40
2017-07-06T03:01:42.064Z,58.50
2017-07-06T03:04:10.155Z,58.50
2017-07-06T03:06:38.843Z,58.40
2017-07-06T03:09:06.907Z,58.40
2017-07-06T03:11:34.980Z,58.60
2017-07-06T03:14:03.014Z,58.50
2017-07-06T03:16:31.851Z,58.00
2017-07-06T03:19:00.215Z,58.40
2017-07-06T03:21:28.287Z,58.50
2017-07-06T03:23:56.358Z,58.60
2017-07-06T03:26:25.343Z,58.60
2017-07-06T03:28:54.111Z,58.60
2017-07-06T03:31:22.515Z,58.50
2017-07-06T03:33:50.587Z,58.60
2017-07-06T03:36:18.659Z,58.60
2017-07-06T03:38:46.727Z,58.60
2017-07-06T03:41:15.615Z,58.50
2017-07-06T03:43:43.683Z,58.50
2017-07-06T03:46:11.751Z,58.60
2017-07-06T03:48:39.823Z,58.60
2017-07-06T03:51:07.894Z,58.60
2017-07-06T03:53:35.906Z,58.60
2017-07-06T03:56:03.934Z,58.60
2017-07-06T03:58:31.950Z,58.60
2017-07-06T04:00:59.991Z,58.50
2017-07-06T04:03:28.663Z,58.60
2017-07-06T04:05:56.678Z,58.70
2017-07-06T04:08:24.702Z,58.80
2017-07-06T04:10:52.723Z,58.80
2017-07-06T04:13:21.551Z,58.80
2017-07-06T04:15:49.629Z,58.90
2017-07-06T04:18:17.697Z,59.00
2017-07-06T04:20:45.758Z,59.00
2017-07-06T04:23:15.063Z,59.10
2017-07-06T04:25:43.135Z,59.10
2017-07-06T04:28:11.207Z,59.20
2017-07-06T04:30:39.271Z,59.30
2017-07-06T04:33:07.980Z,59.50
2017-07-06T04:35:36.030Z,59.40
2017-07-06T04:38:04.062Z,59.70
2017-07-06T04:40:32.842Z,59.70
2017-07-06T04:43:01.779Z,59.70
2017-07-06T04:45:30.019Z,59.80
2017-07-06T04:47:58.843Z,60.10
2017-07-06T04:50:27.371Z,60.10
2017-07-06T04:52:55.405Z,60.30
2017-07-06T04:55:23.465Z,60.30
2017-07-06T04:57:51.530Z,60.50
2017-07-06T05:00:19.553Z,60.40
2017-07-06T05:02:47.580Z,60.70
2017-07-06T05:05:15.644Z,60.70
2017-07-06T05:07:43.815Z,61.00
2017-07-06T05:10:11.885Z,60.90
2017-07-06T05:12:39.898Z,60.70
2017-07-06T05:15:08.845Z,60.70
2017-07-06T05:17:37.306Z,60.80
2017-07-06T05:20:05.395Z,61.20
2017-07-06T05:22:34.287Z,61.40
2017-07-06T05:25:02.318Z,61.80
2017-07-06T05:27:30.835Z,61.90
2017-07-06T05:29:59.519Z,61.70
2017-07-06T05:32:27.589Z,61.80
2017-07-06T05:34:55.663Z,61.90
2017-07-06T05:37:23.959Z,62.00
2017-07-06T05:39:51.990Z,62.20
2017-07-06T05:42:20.070Z,62.30
2017-07-06T05:44:48.146Z,62.20
2017-07-06T05:47:16.218Z,62.30
2017-07-06T05:49:44.287Z,62.30
2017-07-06T05:52:13.171Z,62.30
2017-07-06T05:54:41.251Z,62.20
2017-07-06T05:57:09.738Z,62.20
2017-07-06T05:59:37.794Z,62.20
2017-07-06T06:02:05.815Z,62.60
2017-07-06T06:04:33.941Z,62.70
2017-07-06T06:07:02.002Z,62.70
2017-07-06T06:09:30.023Z,62.50
2017-07-06T06:11:58.148Z,62.60
2017-07-06T06:14:26.224Z,62.80
2017-07-06T06:16:54.249Z,62.60
2017-07-06T06:19:25.023Z,62.50
2017-07-06T06:21:58.635Z,62.60
2017-07-06T06:24:32.368Z,62.50
2017-07-06T06:27:00.399Z,62.40
2017-07-06T06:29:29.540Z,62.30
2017-07-06T06:31:57.571Z,62.20
2017-07-06T06:34:25.591Z,62.30
2017-07-06T06:36:53.619Z,62.20
2017-07-06T06:39:21.648Z,62.30
2017-07-06T06:41:49.670Z,62.20
2017-07-06T06:44:17.699Z,62.20
2017-07-06T06:46:45.732Z,62.10
2017-07-06T06:49:13.747Z,62.10
2017-07-06T06:51:42.107Z,62.00
2017-07-06T06:54:10.483Z,62.00
2017-07-06T06:56:38.512Z,62.10
2017-07-06T06:59:06.526Z,62.20
2017-07-06T07:01:34.565Z,62.40
2017-07-06T07:04:02.582Z,62.40
2017-07-06T07:06:30.611Z,63.10
2017-07-06T07:08:58.631Z,62.60
2017-07-06T07:11:26.858Z,62.70
2017-07-06T07:13:54.871Z,62.80
2017-07-06T07:16:22.887Z,62.80
2017-07-06T07:18:50.911Z,62.80
2017-07-06T07:21:18.932Z,62.90
2017-07-06T07:23:46.955Z,63.10
2017-07-06T07:26:14.975Z,63.00
2017-07-06T07:28:43.003Z,63.00
2017-07-06T07:31:11.015Z,63.00
2017-07-06T07:33:39.052Z,63.10
2017-07-06T07:36:07.084Z,63.10
2017-07-06T07:38:35.111Z,63.20
2017-07-06T07:41:03.129Z,63.20
2017-07-06T07:43:31.150Z,63.20
2017-07-06T07:45:59.179Z,63.30
2017-07-06T07:48:27.216Z,63.40
2017-07-06T07:50:55.243Z,63.40
2017-07-06T07:53:23.280Z,63.50
2017-07-06T07:55:52.214Z,63.60
2017-07-06T07:58:21.030Z,63.60
2017-07-06T08:00:49.056Z,63.60
2017-07-06T08:03:17.187Z,63.60
2017-07-06T08:05:45.214Z,63.60
2017-07-06T08:08:14.043Z,63.80
2017-07-06T08:10:42.069Z,63.80
2017-07-06T08:13:10.187Z,63.70
2017-07-06T08:15:38.220Z,63.80
2017-07-06T08:18:07.927Z,63.90
2017-07-06T08:20:36.722Z,64.70
2017-07-06T08:23:05.539Z,64.00
2017-07-06T08:25:33.611Z,64.00
2017-07-06T08:28:01.638Z,64.00
2017-07-06T08:30:29.751Z,64.20
2017-07-06T08:32:57.818Z,64.20
2017-07-06T08:35:26.130Z,64.30
2017-07-06T08:37:54.162Z,64.30
2017-07-06T08:40:22.191Z,64.20
2017-07-06T08:42:51.020Z,64.30
2017-07-06T08:45:19.051Z,64.20
2017-07-06T08:47:47.882Z,64.00
2017-07-06T08:50:15.957Z,64.00
2017-07-06T08:52:44.041Z,64.10
2017-07-06T08:55:12.916Z,64.10
2017-07-06T08:57:40.929Z,64.10
2017-07-06T09:00:09.082Z,63.90
2017-07-06T09:02:37.122Z,64.10
2017-07-06T09:05:05.195Z,64.10
2017-07-06T09:07:33.216Z,64.20
2017-07-06T09:10:02.258Z,63.90
2017-07-06T09:12:31.515Z,63.80
2017-07-06T09:15:00.323Z,63.60
2017-07-06T09:17:28.409Z,63.50
2017-07-06T09:19:57.786Z,63.30
2017-07-06T09:22:26.586Z,63.20
2017-07-06T09:24:54.880Z,63.20
2017-07-06T09:27:22.947Z,63.10
2017-07-06T09:29:51.795Z,62.90
2017-07-06T09:32:20.584Z,63.00
2017-07-06T09:34:49.409Z,62.90
2017-07-06T09:37:18.502Z,62.90
2017-07-06T09:39:47.162Z,62.90
2017-07-06T09:42:16.880Z,62.70
2017-07-06T09:44:44.899Z,62.70
2017-07-06T09:47:13.034Z,62.60
2017-07-06T09:49:41.054Z,62.50
2017-07-06T09:52:09.174Z,63.00
2017-07-06T09:54:37.246Z,62.30
2017-07-06T09:57:06.138Z,62.20
2017-07-06T09:59:34.205Z,62.20
2017-07-06T10:02:02.286Z,62.30
2017-07-06T10:04:30.313Z,62.50
2017-07-06T10:06:59.152Z,62.30
2017-07-06T10:09:27.298Z,62.30
2017-07-06T10:11:55.289Z,62.20
2017-07-06T10:14:23.355Z,62.00
2017-07-06T10:16:51.419Z,62.10
2017-07-06T10:19:19.492Z,61.80
2017-07-06T10:21:47.565Z,61.70
2017-07-06T10:24:15.695Z,61.80
2017-07-06T10:26:43.652Z,61.50
2017-07-06T10:29:11.687Z,61.50
2017-07-06T10:31:39.739Z,61.30
2017-07-06T10:34:07.820Z,61.20
2017-07-06T10:36:35.841Z,61.40
2017-07-06T10:39:04.673Z,60.70
2017-07-06T10:41:32.688Z,61.20
2017-07-06T10:44:00.806Z,61.30
2017-07-06T10:46:28.827Z,61.00
2017-07-06T10:48:56.958Z,61.00
2017-07-06T10:51:25.593Z,60.80
2017-07-06T10:53:55.243Z,60.40
2017-07-06T10:56:24.173Z,60.90
2017-07-06T10:58:52.298Z,60.70
2017-07-06T11:01:20.379Z,60.50
2017-07-06T11:03:48.935Z,60.60
2017-07-06T11:06:17.011Z,60.30
2017-07-06T11:08:45.103Z,60.40
2017-07-06T11:11:13.899Z,60.30
2017-07-06T11:13:41.959Z,60.20
2017-07-06T11:16:10.566Z,60.10
2017-07-06T11:18:38.608Z,60.30
2017-07-06T11:21:06.995Z,59.60
2017-07-06T11:23:35.009Z,59.70
2017-07-06T11:26:03.039Z,59.60
2017-07-06T11:28:31.062Z,59.70
2017-07-06T11:30:59.879Z,59.80
2017-07-06T11:33:27.950Z,59.70
2017-07-06T11:35:55.975Z,59.60
2017-07-06T11:38:23.995Z,59.30
2017-07-06T11:40:52.892Z,59.40
2017-07-06T11:43:21.593Z,59.20
2017-07-06T11:45:49.740Z,59.10
2017-07-06T11:48:17.747Z,59.00
2017-07-06T11:50:45.883Z,58.60
2017-07-06T11:53:13.943Z,58.80
2017-07-06T11:55:42.835Z,58.50
2017-07-06T11:58:10.850Z,58.30
2017-07-06T12:00:38.975Z,58.40
2017-07-06T12:03:07.043Z,58.00
2017-07-06T12:05:35.072Z,58.30
2017-07-06T12:08:03.155Z,58.20
2017-07-06T12:10:31.322Z,58.00
2017-07-06T12:13:00.161Z,57.70
2017-07-06T12:15:28.188Z,57.60
2017-07-06T12:17:56.291Z,57.80
2017-07-06T12:20:24.367Z,57.70
2017-07-06T12:22:52.386Z,57.50
2017-07-06T12:25:20.506Z,57.50
2017-07-06T12:27:48.527Z,57.50
2017-07-06T12:30:16.543Z,57.20
2017-07-06T12:32:44.611Z,57.20
2017-07-06T12:35:12.634Z,57.10
2017-07-06T12:37:40.754Z,57.00
2017-07-06T12:40:08.823Z,56.90
2017-07-06T12:42:36.897Z,56.80
2017-07-06T12:45:04.959Z,56.60
2017-07-06T12:47:32.995Z,56.40
2017-07-06T12:50:01.279Z,56.30
2017-07-06T12:52:30.099Z,56.10
2017-07-06T12:55:00.686Z,56.00
2017-07-06T12:57:28.792Z,56.00
2017-07-06T12:59:56.807Z,55.90
2017-07-06T13:02:24.939Z,56.10
2017-07-06T13:04:58.845Z,55.90
2017-07-06T13:07:32.618Z,55.80
2017-07-06T13:10:01.456Z,55.90
2017-07-06T13:12:31.044Z,55.60
2017-07-06T13:14:59.066Z,55.60
2017-07-06T13:17:27.855Z,55.40
2017-07-06T13:19:57.303Z,55.30
2017-07-06T13:22:25.378Z,55.30
2017-07-06T13:24:53.384Z,55.40
2017-07-06T13:27:21.510Z,55.40
2017-07-06T13:29:50.215Z,55.40
2017-07-06T13:32:19.494Z,55.30
2017-07-06T13:34:47.568Z,55.20
2017-07-06T13:37:15.677Z,55.00
2017-07-06T13:39:43.667Z,55.20
2017-07-06T13:42:12.867Z,55.10
2017-07-06T13:44:41.791Z,55.20
2017-07-06T13:47:09.858Z,55.20
2017-07-06T13:49:38.130Z,55.40
2017-07-06T13:52:07.310Z,55.40
2017-07-06T13:54:35.343Z,55.40
2017-07-06T13:57:03.475Z,55.70
2017-07-06T13:59:31.543Z,55.50
2017-07-06T14:01:59.629Z,55.50
2017-07-06T14:04:27.641Z,55.50
2017-07-06T14:06:55.755Z,55.40
2017-07-06T14:09:23.827Z,55.30
2017-07-06T14:11:51.894Z,55.40
2017-07-06T14:14:20.683Z,55.50
2017-07-06T14:16:49.455Z,55.60
2017-07-06T14:19:17.951Z,55.70
2017-07-06T14:21:46.023Z,55.80
2017-07-06T14:24:15.726Z,55.80
2017-07-06T14:26:44.273Z,55.80
2017-07-06T14:29:15.235Z,55.80
2017-07-06T14:31:43.836Z,55.70
2017-07-06T14:34:11.903Z,55.80
2017-07-06T14:36:39.974Z,55.80
2017-07-06T14:39:08.000Z,55.80
2017-07-06T14:41:36.111Z,55.90
2017-07-06T14:44:04.126Z,55.80
2017-07-06T14:46:32.258Z,55.90
2017-07-06T14:49:00.327Z,56.00
2017-07-06T14:51:28.404Z,56.00
2017-07-06T14:53:56.464Z,56.00
2017-07-06T14:56:24.639Z,56.00
2017-07-06T14:58:52.711Z,56.00
2017-07-06T15:01:20.787Z,56.00
2017-07-06T15:03:49.946Z,56.00
2017-07-06T15:06:18.758Z,55.90
2017-07-06T15:08:46.772Z,55.90
2017-07-06T15:11:14.907Z,55.90
2017-07-06T15:13:42.974Z,55.90
2017-07-06T15:16:11.047Z,56.00
2017-07-06T15:18:39.064Z,56.20
2017-07-06T15:21:07.389Z,56.40
2017-07-06T15:23:35.463Z,56.70
2017-07-06T15:26:03.531Z,57.20
2017-07-06T15:28:31.607Z,57.40
2017-07-06T15:30:59.679Z,57.70
2017-07-06T15:33:28.006Z,57.70
2017-07-06T15:35:56.799Z,59.10
2017-07-06T15:38:25.583Z,59.10
2017-07-06T15:40:54.412Z,59.40
2017-07-06T15:43:22.436Z,59.40
2017-07-06T15:45:50.567Z,59.50
2017-07-06T15:48:18.614Z,59.80
2017-07-06T15:50:46.690Z,59.90
2017-07-06T15:53:14.759Z,60.30
2017-07-06T15:55:43.587Z,60.60
2017-07-06T15:58:11.735Z,60.50
2017-07-06T16:00:39.794Z,60.60
2017-07-06T16:03:07.863Z,61.10
2017-07-06T16:05:35.936Z,61.00
2017-07-06T16:08:04.003Z,61.20
2017-07-06T16:10:32.074Z,60.80
2017-07-06T16:13:02.298Z,60.90
2017-07-06T16:15:30.311Z,60.90
2017-07-06T16:17:58.439Z,61.70
2017-07-06T16:20:26.535Z,64.60
2017-07-06T16:22:54.574Z,64.60
2017-07-06T16:25:24.567Z,69.30
2017-07-06T16:27:53.379Z,70.20
2017-07-06T16:30:21.446Z,70.20
2017-07-06T16:32:49.523Z,71.30
2017-07-06T16:35:17.595Z,71.00
2017-07-06T16:37:45.634Z,73.60
2017-07-06T16:40:14.451Z,73.00
2017-07-06T16:42:43.638Z,73.40
2017-07-06T16:45:11.667Z,73.30
2017-07-06T16:47:39.808Z,73.20
2017-07-06T16:50:08.266Z,73.80
2017-07-06T16:52:36.337Z,73.50
2017-07-06T16:55:04.375Z,73.70
2017-07-06T16:57:33.158Z,73.80
2017-07-06T17:00:02.897Z,73.90
2017-07-06T17:02:30.976Z,73.90
2017-07-06T17:05:00.355Z,73.50
2017-07-06T17:07:28.402Z,73.30
2017-07-06T17:09:57.226Z,73.40
2017-07-06T17:12:25.242Z,73.40
2017-07-06T17:14:53.370Z,74.00
2017-07-06T17:17:21.390Z,74.20
2017-07-06T17:19:49.505Z,74.20
2017-07-06T17:22:18.294Z,74.60
2017-07-06T17:24:47.487Z,74.60
2017-07-06T17:27:15.511Z,74.60
2017-07-06T17:29:44.342Z,73.80
2017-07-06T17:32:12.426Z,73.80
2017-07-06T17:34:41.522Z,74.10
2017-07-06T17:37:09.538Z,74.00
2017-07-06T17:39:37.787Z,73.80
2017-07-06T17:42:05.801Z,73.90
2017-07-06T17:44:33.842Z,74.00
2017-07-06T17:47:01.868Z,74.00
2017-07-06T17:49:29.888Z,73.90
2017-07-06T17:51:57.914Z,74.00
2017-07-06T17:54:25.956Z,74.00
2017-07-06T17:56:53.982Z,74.30
2017-07-06T17:59:22.340Z,73.80
2017-07-06T18:01:50.362Z,74.30
2017-07-06T18:04:18.386Z,74.30
2017-07-06T18:06:46.398Z,74.10
2017-07-06T18:09:14.411Z,74.00
2017-07-06T18:11:42.435Z,74.40
2017-07-06T18:14:10.454Z,74.10
2017-07-06T18:16:38.483Z,74.50
2017-07-06T18:19:06.495Z,74.10
2017-07-06T18:21:34.526Z,73.90
2017-07-06T18:24:02.526Z,73.80
2017-07-06T18:26:30.552Z,74.10
2017-07-06T18:28:58.572Z,74.10
2017-07-06T18:31:26.591Z,74.50
2017-07-06T18:33:54.612Z,74.20
2017-07-06T18:36:23.519Z,73.90
2017-07-06T18:38:57.283Z,74.00
2017-07-06T18:41:26.578Z,73.90
2017-07-06T18:43:54.586Z,73.80
2017-07-06T18:46:22.610Z,73.70
2017-07-06T18:48:50.623Z,73.60
2017-07-06T18:51:18.646Z,73.40
2017-07-06T18:53:46.667Z,74.00
2017-07-06T18:56:14.691Z,74.00
2017-07-06T18:58:42.710Z,73.90
2017-07-06T19:01:10.723Z,74.00
2017-07-06T19:03:38.747Z,74.20
2017-07-06T19:06:07.523Z,74.20
2017-07-06T19:08:35.899Z,74.50
2017-07-06T19:11:04.133Z,74.10
2017-07-06T19:13:32.161Z,74.30
2017-07-06T19:16:00.166Z,74.30
2017-07-06T19:18:28.199Z,74.20
2017-07-06T19:20:56.216Z,74.10
2017-07-06T19:23:24.244Z,74.00
2017-07-06T19:25:52.260Z,74.10
2017-07-06T19:28:20.286Z,74.30
2017-07-06T19:30:48.299Z,74.40
2017-07-06T19:33:16.327Z,74.20
2017-07-06T19:35:44.339Z,74.30
2017-07-06T19:38:12.368Z,74.10
2017-07-06T19:40:40.713Z,74.10
2017-07-06T19:43:08.742Z,74.00
2017-07-06T19:45:36.758Z,73.80
2017-07-06T19:48:04.181Z,73.70
2017-07-06T19:50:31.607Z,73.80
2017-07-06T19:52:59.030Z,74.00
2017-07-06T19:55:26.455Z,73.70
2017-07-06T19:57:53.882Z,73.80
2017-07-06T20:00:21.314Z,73.80
2017-07-06T20:02:48.735Z,73.80
2017-07-06T20:05:16.170Z,73.60
2017-07-06T20:07:43.603Z,73.50
2017-07-06T20:10:11.038Z,73.70
2017-07-06T20:12:38.463Z,73.60
2017-07-06T20:15:05.898Z,73.60
2017-07-06T20:17:33.322Z,74.00
2017-07-06T20:20:00.759Z,73.90
2017-07-06T20:22:28.175Z,74.00
2017-07-06T20:24:55.617Z,73.80
2017-07-06T20:27:23.044Z,72.70
2017-07-06T20:29:50.480Z,73.40
2017-07-06T20:32:17.899Z,73.50
2017-07-06T20:34:45.343Z,73.80
2017-07-06T20:37:12.766Z,74.00
2017-07-06T20:39:40.213Z,73.90
2017-07-06T20:42:07.635Z,75.10
2017-07-06T20:44:35.074Z,75.40
2017-07-06T20:47:02.523Z,75.50
2017-07-06T20:49:29.955Z,75.60
2017-07-06T20:51:57.390Z,76.30
2017-07-06T20:54:24.814Z,76.60
2017-07-06T20:56:52.251Z,76.50
2017-07-06T20:59:19.666Z,76.40
2017-07-06T21:01:47.099Z,76.20
2017-07-06T21:04:14.592Z,76.40
2017-07-06T21:06:42.017Z,76.30
2017-07-06T21:09:09.439Z,76.20
2017-07-06T21:11:36.878Z,76.30
2017-07-06T21:14:04.301Z,76.40
2017-07-06T21:16:31.761Z,76.40
2017-07-06T21:18:59.157Z,76.30
2017-07-06T21:21:26.595Z,76.70
2017-07-06T21:23:54.010Z,76.60
2017-07-06T21:26:21.442Z,76.20
2017-07-06T21:28:48.866Z,76.40
2017-07-06T21:31:17.104Z,76.70
2017-07-06T21:33:44.525Z,76.30
2017-07-06T21:36:11.983Z,76.30
2017-07-06T21:38:39.410Z,76.10
2017-07-06T21:41:06.838Z,76.40
2017-07-06T21:43:34.274Z,76.10
2017-07-06T21:46:01.700Z,76.40
2017-07-06T21:48:29.136Z,76.40
2017-07-06T21:50:56.558Z,76.00
2017-07-06T21:53:23.991Z,76.40
2017-07-06T21:55:51.523Z,76.50
2017-07-06T21:58:19.731Z,76.40
2017-07-06T22:00:47.307Z,76.40
2017-07-06T22:03:14.767Z,76.30
2017-07-06T22:05:42.195Z,76.10
2017-07-06T22:08:09.683Z,76.10
2017-07-06T22:10:37.131Z,76.00
2017-07-06T22:13:04.587Z,76.00
2017-07-06T22:15:32.047Z,75.90
2017-07-06T22:17:59.499Z,75.60
2017-07-06T22:20:26.959Z,75.40
2017-07-06T22:22:54.396Z,75.60
2017-07-06T22:25:22.249Z,75.40
2017-07-06T22:27:49.631Z,75.30
2017-07-06T22:30:17.090Z,75.10
2017-07-06T22:32:44.642Z,74.90
2017-07-06T22:35:12.104Z,74.90
2017-07-06T22:37:39.560Z,74.60
2017-07-06T22:40:07.019Z,74.60
2017-07-06T22:42:34.443Z,74.40
2017-07-06T22:45:01.932Z,74.30
2017-07-06T22:47:29.383Z,74.30
2017-07-06T22:49:56.838Z,73.80
2017-07-06T22:52:24.291Z,73.80
2017-07-06T22:54:51.750Z,73.70
2017-07-06T22:57:19.212Z,73.70
2017-07-06T22:59:47.488Z,73.80
2017-07-06T23:02:14.935Z,73.70
2017-07-06T23:04:42.392Z,73.50
2017-07-06T23:07:10.259Z,73.70
2017-07-06T23:09:37.719Z,73.60
2017-07-06T23:12:05.478Z,73.60
2017-07-06T23:14:32.936Z,73.70
2017-07-06T23:17:00.410Z,73.30
2017-07-06T23:19:27.848Z,73.50
2017-07-06T23:21:55.303Z,73.50
2017-07-06T23:24:22.803Z,73.20
2017-07-06T23:26:50.218Z,73.60
2017-07-06T23:29:17.667Z,73.60
2017-07-06T23:31:45.128Z,73.50
2017-07-06T23:34:12.582Z,73.60
2017-07-06T23:36:40.018Z,73.20
2017-07-06T23:39:07.495Z,72.60
2017-07-06T23:41:34.951Z,72.70
2017-07-06T23:44:02.411Z,72.90
2017-07-06T23:46:29.858Z,73.90
2017-07-06T23:48:57.734Z,74.60
2017-07-06T23:51:25.192Z,75.00
2017-07-06T23:53:52.644Z,75.20
2017-07-06T23:56:20.103Z,75.10
2017-07-06T23:58:47.554Z,75.20
